Time;durP1;ratioP1;P1;durP2;ratioP2;P2;SDS_P1;SDS_P2;PMS_P1;PMS_P2;Temp;Humidity;BMP_temperature;BMP_pressure;BME280_temperature;BME280_humidity;BME280_pressure;Samples;Min_cycle;Max_cycle;Signal;HPM_P1;HPM_P2
2023/04/18 04:30:21;;;;;;;;;62.33;50.00;;;;;12.18;64.06;101826.16;5097015;27;45554;-76
2023/04/18 04:32:46;;;;;;;;;67.33;52.67;;;;;12.16;64.05;101823.56;5082191;27;45442;-76
2023/04/18 04:35:12;;;;;;;;;64.75;51.75;;;;;12.06;64.83;101817.63;5096877;27;45412;-76
2023/04/18 04:37:40;;;;;;;;;63.25;48.75;;;;;12.09;64.44;101819.31;5096856;27;46798;-77
2023/04/18 04:40:08;;;;;;;;;70.67;53.00;;;;;12.13;64.66;101820.97;5096742;27;45288;-78
2023/04/18 04:42:34;;;;;;;;;63.67;52.67;;;;;12.08;65.03;101814.88;5098184;27;45483;-77
2023/04/18 04:45:00;;;;;;;;;70.00;54.00;;;;;12.08;64.87;101817.53;5092014;27;45626;-75
2023/04/18 04:47:25;;;;;;;;;69.00;52.75;;;;;12.08;65.13;101814.88;5116920;27;45283;-77
2023/04/18 04:49:51;;;;;;;;;56.00;46.00;;;;;12.09;65.11;101824.69;5117070;27;45314;-76
2023/04/18 04:52:17;;;;;;;;;66.50;53.25;;;;;12.06;65.02;101831.06;5109904;27;45380;-76
2023/04/18 04:54:44;;;;;;;;;73.00;55.00;;;;;12.05;65.39;101823.06;5096594;27;45395;-78
2023/04/18 04:57:10;;;;;;;;;66.75;52.25;;;;;12.06;65.53;101830.19;5078634;27;46563;-78
2023/04/18 04:59:35;;;;;;;;;72.00;56.33;;;;;11.94;65.14;101799.22;5095877;27;45178;-78
2023/04/18 05:02:00;;;;;;;;;64.33;50.67;;;;;12.00;65.05;101811.56;5096906;27;45469;-76
2023/04/18 05:04:26;;;;;;;;;64.67;53.00;;;;;11.94;65.58;101812.66;5097051;27;45387;-76
2023/04/18 05:06:51;;;;;;;;;67.50;54.75;;;;;12.12;65.34;101833.53;5097527;27;46126;-77
2023/04/18 05:09:17;;;;;;;;;70.67;55.00;;;;;12.08;65.23;101826.50;5097005;27;45218;-76
2023/04/18 05:11:42;;;;;;;;;73.67;56.00;;;;;12.10;65.44;101826.44;5097238;27;45327;-75
2023/04/18 05:14:09;;;;;;;;;64.67;50.67;;;;;12.13;65.28;101834.41;5096174;27;45254;-77
2023/04/18 05:16:34;;;;;;;;;70.67;54.67;;;;;12.13;65.26;101834.41;5085247;27;46015;-77
2023/04/18 05:19:00;;;;;;;;;68.67;52.33;;;;;12.14;65.32;101828.09;5101938;27;45439;-76
2023/04/18 05:21:27;;;;;;;;;68.33;56.00;;;;;12.16;65.31;101828.06;5096215;27;45462;-75
2023/04/18 05:23:52;;;;;;;;;63.25;49.75;;;;;12.18;65.36;101834.25;5095575;27;46191;-76
2023/04/18 05:26:18;;;;;;;;;76.00;56.33;;;;;12.19;65.07;101828.81;5095618;27;45597;-76
2023/04/18 05:28:43;;;;;;;;;67.33;53.33;;;;;12.20;65.28;101835.06;5101602;27;45283;-77
2023/04/18 05:31:08;;;;;;;;;64.67;50.67;;;;;12.11;64.89;101826.41;5112221;27;45520;-75
2023/04/18 05:33:34;;;;;;;;;65.00;51.33;;;;;12.17;65.07;101838.72;5101411;27;45337;-75
2023/04/18 05:35:59;;;;;;;;;68.67;52.67;;;;;12.13;65.58;101832.59;5094991;27;46132;-76
2023/04/18 05:38:24;;;;;;;;;68.00;53.67;;;;;12.11;65.37;101820.13;5095518;27;45379;-75
2023/04/18 05:40:50;;;;;;;;;66.67;53.67;;;;;12.20;65.17;101832.38;5095561;27;45544;-76
2023/04/18 05:43:18;;;;;;;;;70.33;56.00;;;;;11.99;65.02;101804.47;5094775;27;45425;-77
2023/04/18 05:45:44;;;;;;;;;71.33;55.33;;;;;12.12;64.71;101825.47;5102843;27;45439;-78
2023/04/18 05:48:09;;;;;;;;;72.67;56.33;;;;;12.15;64.76;101829.00;5097216;27;45313;-78
2023/04/18 05:50:35;;;;;;;;;71.67;57.00;;;;;12.24;64.96;101847.50;5116172;27;45893;-74
2023/04/18 05:53:00;;;;;;;;;68.67;53.00;;;;;12.23;64.71;101843.91;5101579;27;45366;-73
2023/04/18 05:55:25;;;;;;;;;69.00;52.33;;;;;12.17;65.17;101827.97;5095322;27;45830;-74
2023/04/18 05:57:50;;;;;;;;;63.75;52.50;;;;;12.22;65.02;101831.41;5094466;27;45354;-74
2023/04/18 06:00:16;;;;;;;;;63.67;53.00;;;;;12.24;64.63;101837.63;5095172;27;45330;-74
2023/04/18 06:02:42;;;;;;;;;68.33;53.00;;;;;12.30;64.87;101849.94;5094816;27;45525;-76
2023/04/18 06:05:07;;;;;;;;;67.67;54.67;;;;;12.34;64.76;101848.88;5094843;27;46027;-74
2023/04/18 06:07:33;;;;;;;;;69.00;52.75;;;;;12.39;64.52;101842.44;5094901;27;45322;-75
2023/04/18 06:09:58;;;;;;;;;66.75;52.00;;;;;12.43;64.37;101836.00;5095445;27;45336;-73
2023/04/18 06:12:24;;;;;;;;;62.33;51.33;;;;;12.45;63.80;101841.31;5094712;27;45647;-74
2023/04/18 06:14:49;;;;;;;;;68.33;54.00;;;;;12.46;63.99;101846.66;5093036;27;45900;-75
2023/04/18 06:17:15;;;;;;;;;65.25;51.75;;;;;12.50;64.18;101842.91;5094466;27;45238;-74
2023/04/18 06:19:40;;;;;;;;;63.33;50.67;;;;;12.52;63.44;101841.03;5096522;27;45201;-76
2023/04/18 06:22:06;;;;;;;;;61.33;51.33;;;;;12.43;63.63;101838.69;5096036;27;45419;-74
2023/04/18 06:24:31;;;;;;;;;61.33;51.33;;;;;12.43;63.39;101835.13;5096514;27;46084;-75
2023/04/18 06:26:56;;;;;;;;;68.00;53.00;;;;;12.42;63.44;101844.13;5095846;27;46218;-75
2023/04/18 06:29:22;;;;;;;;;68.67;53.00;;;;;12.41;63.22;101840.56;5095686;27;45428;-74
2023/04/18 06:31:50;;;;;;;;;71.00;56.00;;;;;12.33;63.51;101839.09;5095037;27;45418;-76
2023/04/18 06:34:16;;;;;;;;;58.00;48.33;;;;;12.27;63.39;101833.91;5094636;27;45355;-75
2023/04/18 06:36:42;;;;;;;;;71.33;55.67;;;;;12.21;63.53;101829.66;5094351;27;45272;-76
2023/04/18 06:39:07;;;;;;;;;75.25;55.75;;;;;12.19;64.04;101842.25;5094838;27;45345;-76
2023/04/18 06:41:32;;;;;;;;;65.50;53.50;;;;;12.22;63.88;101842.16;5094323;27;45309;-76
2023/04/18 06:43:58;;;;;;;;;74.33;56.33;;;;;12.23;63.44;101834.97;5094221;27;45468;-75
2023/04/18 06:46:23;;;;;;;;;69.00;55.00;;;;;12.25;64.09;101835.81;5109285;27;46018;-74
2023/04/18 06:48:49;;;;;;;;;68.25;50.00;;;;;12.22;63.68;101831.41;5118560;27;45432;-75
2023/04/18 06:51:15;;;;;;;;;69.75;53.00;;;;;12.27;63.79;101832.09;5100017;27;46461;-75
2023/04/18 06:53:40;;;;;;;;;64.00;53.00;;;;;12.30;63.85;101828.44;5098444;27;45854;-76
2023/04/18 06:56:06;;;;;;;;;67.25;49.75;;;;;12.34;63.78;101836.31;5097924;27;45430;-77
2023/04/18 06:58:31;;;;;;;;;65.00;53.00;;;;;12.36;63.18;101831.78;5097423;27;45292;-75
2023/04/18 07:00:56;;;;;;;;;65.00;51.75;;;;;12.35;63.74;101840.78;5097685;27;45200;-74
2023/04/18 07:03:22;;;;;;;;;67.25;53.00;;;;;12.33;63.40;101833.72;5097447;27;52563;-76
2023/04/18 07:05:49;;;;;;;;;68.25;54.00;;;;;12.37;63.72;101840.72;5097653;27;45354;-74
2023/04/18 07:08:14;;;;;;;;;67.75;53.00;;;;;12.38;63.63;101838.00;5097709;27;45532;-75
2023/04/18 07:10:40;;;;;;;;;67.00;55.00;;;;;12.47;63.13;101834.09;5097731;27;45230;-74
2023/04/18 07:13:05;;;;;;;;;66.75;53.00;;;;;12.50;63.22;101820.53;5097316;27;45879;-75
2023/04/18 07:15:32;;;;;;;;;66.50;51.00;;;;;12.57;63.14;101823.88;5097465;27;45433;-74
2023/04/18 07:17:58;;;;;;;;;67.25;52.25;;;;;12.63;63.05;101835.28;5097598;27;45354;-74
2023/04/18 07:20:23;;;;;;;;;70.50;54.25;;;;;12.68;62.51;101838.66;5097394;27;45614;-75
2023/04/18 07:22:48;;;;;;;;;67.50;53.00;;;;;12.66;62.56;101824.41;5097230;27;49850;-78
2023/04/18 07:25:14;;;;;;;;;69.33;53.67;;;;;12.61;62.47;101815.63;5097475;27;45320;-75
2023/04/18 07:27:39;;;;;;;;;69.67;55.33;;;;;12.60;62.41;101821.94;5097440;27;45373;-77
2023/04/18 07:30:05;;;;;;;;;69.25;54.50;;;;;12.64;62.62;101834.34;5097272;27;45351;-74
2023/04/18 07:32:30;;;;;;;;;72.75;56.00;;;;;12.70;62.83;101836.81;5097038;27;46268;-76
2023/04/18 07:34:56;;;;;;;;;69.50;54.25;;;;;12.76;62.91;101843.78;5097321;27;48007;-74
2023/04/18 07:37:22;;;;;;;;;68.33;52.33;;;;;12.77;62.55;101821.28;5097456;27;45762;-75
2023/04/18 07:39:47;;;;;;;;;72.75;55.50;;;;;12.86;62.07;101829.03;5097156;27;45550;-74
2023/04/18 07:42:13;;;;;;;;;67.75;53.75;;;;;12.88;61.87;101828.03;5096964;27;46308;-76
2023/04/18 07:44:38;;;;;;;;;67.75;55.00;;;;;12.86;62.30;101827.22;5096857;27;45320;-77
2023/04/18 07:47:10;;;;;;;;;71.00;55.67;;;;;12.84;61.99;101818.31;5115767;27;45209;-76
2023/04/18 07:49:36;;;;;;;;;70.00;55.25;;;;;12.93;62.21;101821.63;5117934;27;45312;-76
2023/04/18 07:52:02;;;;;;;;;66.25;53.25;;;;;12.96;61.78;101821.47;5112018;27;46323;-76
2023/04/18 07:54:27;;;;;;;;;70.25;54.00;;;;;12.97;61.58;101821.44;5096972;27;45260;-75
2023/04/18 07:56:53;;;;;;;;;65.25;51.25;;;;;12.96;61.46;101811.59;5096164;27;45215;-75
2023/04/18 07:59:18;;;;;;;;;66.75;52.75;;;;;13.00;61.19;101817.75;5096221;27;52477;-74
2023/04/18 08:01:43;;;;;;;;;67.75;52.75;;;;;13.00;60.97;101810.56;5096638;27;45299;-76
2023/04/18 08:04:09;;;;;;;;;66.00;53.00;;;;;13.00;60.76;101818.63;5090188;27;45777;-76
2023/04/18 08:06:34;;;;;;;;;60.50;48.00;;;;;12.96;60.37;101794.56;5098846;27;45381;-75
2023/04/18 08:09:03;;;;;;;;;70.50;54.50;;;;;12.95;61.00;101806.25;5096860;27;45207;-73
2023/04/18 08:11:29;;;;;;;;;70.50;56.00;;;;;12.91;61.29;101807.34;5096554;27;45354;-75
2023/04/18 08:13:54;;;;;;;;;66.75;50.00;;;;;12.97;61.22;101818.75;5096508;27;45409;-74
2023/04/18 08:16:20;;;;;;;;;68.75;53.25;;;;;13.03;61.33;101810.41;5096733;27;45463;-76
2023/04/18 08:18:45;;;;;;;;;65.75;53.50;;;;;13.07;60.64;101813.88;5096659;27;45593;-74
2023/04/18 08:21:11;;;;;;;;;62.75;51.00;;;;;13.12;60.57;101809.19;5078322;27;45279;-75
2023/04/18 08:23:36;;;;;;;;;66.75;53.25;;;;;13.14;60.10;101793.88;5096905;27;45349;-74
2023/04/18 08:26:02;;;;;;;;;64.25;51.00;;;;;13.22;60.34;101798.03;5096712;27;45498;-75
2023/04/18 08:28:27;;;;;;;;;67.25;54.50;;;;;13.31;59.98;101795.91;5096574;27;45556;-75
2023/04/18 08:30:55;;;;;;;;;66.25;52.25;;;;;13.35;59.90;101801.09;5096456;27;45282;-75
2023/04/18 08:33:24;;;;;;;;;65.50;51.50;;;;;13.32;59.87;101794.97;5096749;27;45322;-76
2023/04/18 08:35:50;;;;;;;;;67.50;53.25;;;;;13.44;59.63;101811.47;5097093;27;45470;-75
2023/04/18 08:38:17;;;;;;;;;72.25;53.00;;;;;13.45;59.34;101805.16;5097288;27;45322;-75
2023/04/18 08:40:43;;;;;;;;;65.75;52.75;;;;;13.35;58.91;101767.91;5097188;27;45225;-75
2023/04/18 08:43:12;;;;;;;;;70.50;49.50;;;;;13.50;58.93;101789.69;5096544;27;45289;-77
2023/04/18 08:45:39;;;;;;;;;64.75;52.75;;;;;13.39;58.51;101769.53;5102974;27;45307;-76
2023/04/18 08:48:06;;;;;;;;;66.25;51.75;;;;;13.49;58.94;101776.28;5117575;27;45349;-76
2023/04/18 08:50:32;;;;;;;;;63.00;52.00;;;;;13.71;58.70;101800.50;5117168;27;46383;-76
2023/04/18 08:53:00;;;;;;;;;63.25;50.50;;;;;13.77;58.24;101794.88;5102346;27;45310;-75
2023/04/18 08:55:25;;;;;;;;;61.50;48.25;;;;;13.79;58.23;101795.66;5096528;27;45271;-74
2023/04/18 08:57:53;;;;;;;;;62.50;49.00;;;;;13.85;57.77;101795.44;5090597;27;45417;-76
2023/04/18 09:00:19;;;;;;;;;57.75;46.75;;;;;13.86;57.76;101784.59;5095938;27;45405;-76
2023/04/18 09:02:45;;;;;;;;;59.00;49.25;;;;;13.94;57.69;101792.34;5095936;27;45324;-75
2023/04/18 09:05:12;;;;;;;;;62.50;50.25;;;;;14.03;58.09;101789.25;5096304;27;45192;-76
2023/04/18 09:07:38;;;;;;;;;61.00;47.00;;;;;14.09;57.01;101782.69;5095820;27;45435;-78
2023/04/18 09:10:03;;;;;;;;;66.00;52.00;;;;;14.11;57.28;101781.69;5096060;27;45290;-75
2023/04/18 09:12:29;;;;;;;;;64.75;50.00;;;;;14.18;57.26;101782.28;5091227;27;45278;-76
2023/04/18 09:15:08;;;;;;;;;60.25;49.50;;;;;14.19;57.07;101770.56;5085184;27;45910;-75
2023/04/18 09:17:34;;;;;;;;;61.50;48.75;;;;;14.25;57.17;101775.69;5100070;27;45405;-77
2023/04/18 09:20:03;;;;;;;;;61.00;47.75;;;;;14.28;56.84;101772.84;5095830;27;45923;-76
2023/04/18 09:22:47;;;;;;;;;58.25;48.50;;;;;14.29;56.36;101761.97;5099190;27;45274;-77
2023/04/18 09:25:36;;;;;;;;;60.75;47.50;;;;;14.31;56.17;101760.09;5103983;27;45334;-77
2023/04/18 09:28:04;;;;;;;;;63.25;48.50;;;;;14.36;55.96;101757.19;5095405;27;45528;-77
2023/04/18 09:30:30;;;;;;;;;67.25;49.50;;;;;14.36;55.70;101762.59;5095777;27;46255;-76
2023/04/18 09:33:00;;;;;;;;;55.50;45.25;;;;;14.37;55.75;101754.41;5095887;27;45326;-76
2023/04/18 09:35:26;;;;;;;;;63.00;51.00;;;;;14.39;55.58;101755.25;5091207;27;45595;-74
2023/04/18 09:37:51;;;;;;;;;59.00;46.75;;;;;14.33;55.89;101736.63;5095863;27;45291;-75
2023/04/18 09:40:18;;;;;;;;;64.75;49.75;;;;;14.41;55.88;101744.41;5095320;27;51829;-75
2023/04/18 09:42:44;;;;;;;;;64.00;49.75;;;;;14.47;55.18;101757.59;5095163;27;45358;-76
2023/04/18 09:45:11;;;;;;;;;61.50;49.00;;;;;14.52;54.73;101749.31;5097618;27;45328;-76
2023/04/18 09:47:38;;;;;;;;;56.75;46.75;;;;;14.54;54.73;101742.91;5115828;27;45340;-77
2023/04/18 09:50:06;;;;;;;;;61.00;49.25;;;;;14.54;54.79;101737.50;5115950;27;47494;-76
2023/04/18 09:52:37;;;;;;;;;69.00;50.75;;;;;14.57;55.25;101741.84;5097233;27;45571;-74
2023/04/18 09:55:05;;;;;;;;;56.25;46.50;;;;;14.60;53.19;101729.13;5112408;27;45204;-74
2023/04/18 09:57:32;;;;;;;;;56.00;44.75;;;;;14.59;53.52;101724.66;5095192;27;45461;-75
2023/04/18 10:00:06;;;;;;;;;62.75;48.50;;;;;14.73;54.54;101729.41;5095000;27;45512;-75
2023/04/18 10:02:38;;;;;;;;;57.25;47.25;;;;;14.78;54.64;101727.38;5095234;27;45535;-76
2023/04/18 10:05:07;;;;;;;;;59.00;46.50;;;;;14.76;54.40;101719.34;5096849;27;45271;-75
2023/04/18 10:07:32;;;;;;;;;58.25;46.50;;;;;14.82;53.63;101720.84;5102150;27;45320;-75
2023/04/18 10:09:57;;;;;;;;;60.25;49.00;;;;;14.69;53.38;101693.59;5095081;27;46275;-76
2023/04/18 10:12:23;;;;;;;;;55.25;44.25;;;;;14.85;53.36;101711.75;5094863;27;45459;-79
2023/04/18 10:14:49;;;;;;;;;65.50;50.00;;;;;14.95;53.50;101723.84;5095426;27;45310;-78
2023/04/18 10:17:15;;;;;;;;;62.25;50.00;;;;;14.85;53.51;101682.94;5095790;27;45527;-76
2023/04/18 10:19:43;;;;;;;;;61.25;48.00;;;;;15.06;53.22;101699.88;5102246;27;47223;-76
2023/04/18 10:22:08;;;;;;;;;61.00;48.00;;;;;15.22;53.11;101705.44;5119338;27;45389;-74
2023/04/18 10:24:52;;;;;;;;;60.25;49.50;;;;;15.28;52.57;101711.41;5120173;27;45349;-75
2023/04/18 10:27:46;;;;;;;;;62.75;49.75;;;;;15.34;53.05;101702.97;5120317;27;45245;-76
2023/04/18 10:30:12;;;;;;;;;55.00;45.75;;;;;15.24;51.84;101676.47;5108211;27;45237;-76
2023/04/18 10:32:38;;;;;;;;;57.75;45.25;;;;;15.40;51.85;101693.66;5119220;27;45318;-76
2023/04/18 10:35:06;;;;;;;;;57.25;45.50;;;;;15.46;52.39;101694.25;5119253;27;45456;-76
2023/04/18 10:37:32;;;;;;;;;57.50;46.00;;;;;15.51;51.32;101685.91;5119461;27;45492;-76
2023/04/18 10:40:05;;;;;;;;;59.75;47.00;;;;;15.54;50.56;101682.22;5119154;27;45817;-75
2023/04/18 10:42:45;;;;;;;;;59.00;47.00;;;;;15.59;51.12;101682.84;5101197;27;45577;-76
2023/04/18 10:45:26;;;;;;;;;56.75;43.25;;;;;15.60;50.58;101671.06;5118888;27;45461;-74
2023/04/18 10:48:22;;;;;;;;;53.75;44.50;;;;;15.69;50.75;101679.56;5118824;27;45528;-74
2023/04/18 10:51:23;;;;;;;;;54.00;45.75;;;;;15.77;50.53;101669.22;5118924;27;45447;-75
2023/04/18 10:53:55;;;;;;;;;55.75;44.50;;;;;15.81;50.03;101665.44;5007911;28;45376;-77
2023/04/18 10:56:21;;;;;;;;;50.25;43.75;;;;;15.76;49.89;101639.56;5081505;27;45608;-75
2023/04/18 10:58:50;;;;;;;;;52.00;42.50;;;;;15.97;50.06;101660.06;5098639;27;45794;-76
2023/04/18 11:01:22;;;;;;;;;54.25;43.75;;;;;16.05;49.57;101659.66;5098638;27;45397;-78
2023/04/18 11:03:48;;;;;;;;;54.50;45.50;;;;;16.13;49.51;101652.88;5098811;27;45546;-76
2023/04/18 11:06:13;;;;;;;;;52.00;43.75;;;;;16.19;48.40;101651.66;5098788;27;45317;-76
2023/04/18 11:08:38;;;;;;;;;45.25;36.25;;;;;16.23;48.33;101647.84;5098280;27;45644;-76
2023/04/18 11:11:07;;;;;;;;;56.00;45.75;;;;;16.22;48.47;101644.25;5079386;27;48440;-76
2023/04/18 11:13:33;;;;;;;;;44.75;39.50;;;;;16.34;49.13;101652.63;5097445;27;45471;-78
2023/04/18 11:15:58;;;;;;;;;54.25;45.25;;;;;16.42;48.36;101650.38;5097805;27;45447;-75
2023/04/18 11:18:23;;;;;;;;;56.00;44.75;;;;;16.48;48.25;101645.50;5079066;27;46267;-77
2023/04/18 11:20:50;;;;;;;;;50.50;41.00;;;;;16.58;47.84;101641.34;5097573;27;46051;-75
2023/04/18 11:23:22;;;;;;;;;55.00;44.75;;;;;16.70;47.38;101647.03;5069052;27;45314;-77
2023/04/18 11:25:52;;;;;;;;;54.75;44.00;;;;;16.76;47.59;101634.00;5115895;27;45435;-79
2023/04/18 11:28:20;;;;;;;;;54.00;44.75;;;;;16.78;47.01;101640.22;5118068;27;45582;-76
2023/04/18 11:30:46;;;;;;;;;49.25;40.25;;;;;16.82;45.41;101632.78;5118108;27;46198;-76
2023/04/18 11:33:13;;;;;;;;;48.00;40.25;;;;;16.82;44.91;101632.78;5117068;27;45402;-77
2023/04/18 11:35:39;;;;;;;;;44.25;37.75;;;;;16.81;44.82;101626.50;5118092;27;45357;-75
2023/04/18 11:38:06;;;;;;;;;39.00;35.00;;;;;16.78;43.82;101626.66;5117684;27;45502;-76
2023/04/18 11:40:31;;;;;;;;;39.50;33.50;;;;;16.96;43.35;101630.16;5079882;27;46072;-76
2023/04/18 11:43:01;;;;;;;;;41.50;35.75;;;;;17.13;42.46;101629.16;5091257;27;45248;-76
2023/04/18 11:45:27;;;;;;;;;45.25;37.00;;;;;17.21;42.53;101626.88;5099264;27;45340;-75
2023/04/18 11:47:56;;;;;;;;;44.25;35.25;;;;;17.20;42.82;101625.13;5117623;27;45556;-76
2023/04/18 11:50:21;;;;;;;;;39.00;33.50;;;;;17.16;43.04;101626.28;5117609;27;45278;-76
2023/04/18 11:52:50;;;;;;;;;45.25;35.75;;;;;17.19;43.04;101623.38;5105870;27;45441;-75
2023/04/18 11:55:28;;;;;;;;;44.50;38.00;;;;;17.15;42.44;101624.53;5097273;27;45449;-77
2023/04/18 11:57:58;;;;;;;;;35.25;32.50;;;;;17.13;42.25;101599.34;5096817;27;45529;-76
2023/04/18 12:00:31;;;;;;;;;43.25;37.00;;;;;17.24;41.93;101623.97;5097099;27;45330;-75
2023/04/18 12:02:58;;;;;;;;;41.75;35.25;;;;;17.21;41.95;101619.59;5097061;27;45529;-76
2023/04/18 12:05:35;;;;;;;;;33.00;31.50;;;;;17.18;42.38;101614.34;5087821;27;45364;-76
2023/04/18 12:08:10;;;;;;;;;45.50;37.00;;;;;17.18;42.19;101627.06;5100055;27;45419;-77
2023/04/18 12:10:37;;;;;;;;;38.25;36.00;;;;;16.96;42.50;101582.25;5096993;27;45349;-75
2023/04/18 12:13:07;;;;;;;;;35.50;32.00;;;;;17.13;42.84;101612.91;5096478;27;45433;-76
2023/04/18 12:15:32;;;;;;;;;36.75;33.50;;;;;17.12;42.67;101608.44;5097070;27;45346;-76
2023/04/18 12:17:59;;;;;;;;;39.25;35.00;;;;;17.11;43.13;101609.41;5096755;27;45274;-75
2023/04/18 12:20:33;;;;;;;;;46.25;37.25;;;;;17.06;43.00;101612.41;5096800;27;45323;-77
2023/04/18 12:23:00;;;;;;;;;39.25;33.50;;;;;17.02;43.67;101592.72;5096725;27;45287;-75
2023/04/18 12:25:26;;;;;;;;;39.25;34.75;;;;;17.47;43.53;101593.63;5096941;27;45196;-75
2023/04/18 12:27:54;;;;;;;;;43.50;35.50;;;;;17.79;43.35;101597.09;5096319;27;45501;-76
2023/04/18 12:30:22;;;;;;;;;43.50;36.25;;;;;18.04;41.79;101599.13;5096397;27;45608;-77
2023/04/18 12:32:53;;;;;;;;;38.00;35.50;;;;;18.47;40.31;101586.38;5085548;27;45698;-76
2023/04/18 12:35:19;;;;;;;;;37.75;34.50;;;;;18.46;40.16;101590.94;5102098;27;45278;-76
2023/04/18 12:37:48;;;;;;;;;30.25;28.00;;;;;18.29;39.64;101590.34;5096516;27;45422;-75
2023/04/18 12:40:15;;;;;;;;;35.00;30.50;;;;;18.35;41.08;101590.81;5078672;27;46076;-76
2023/04/18 12:42:41;;;;;;;;;38.25;33.50;;;;;18.80;39.69;101572.44;5096061;27;45236;-76
2023/04/18 12:45:10;;;;;;;;;39.75;34.50;;;;;19.13;38.55;101591.94;5097904;27;45341;-77
2023/04/18 12:47:40;;;;;;;;;29.00;26.00;;;;;19.58;37.39;101566.13;5116811;27;45950;-75
2023/04/18 12:50:08;;;;;;;;;27.75;27.75;;;;;19.98;36.58;101575.06;5084616;27;47132;-75
2023/04/18 12:52:36;;;;;;;;;27.00;27.00;;;;;20.10;36.16;101584.19;5106345;27;45456;-75
2023/04/18 12:55:01;;;;;;;;;26.50;26.00;;;;;20.46;35.61;101583.38;5096385;27;45381;-76
2023/04/18 12:57:26;;;;;;;;;33.50;30.00;;;;;20.66;35.16;101563.72;5096008;27;45505;-76
2023/04/18 12:59:52;;;;;;;;;32.75;30.00;;;;;20.97;34.21;101551.34;5096751;27;45496;-77
2023/04/18 13:02:17;;;;;;;;;30.50;29.00;;;;;20.74;34.63;101555.84;5097323;27;45306;-75
2023/04/18 13:04:42;;;;;;;;;25.75;24.75;;;;;20.45;35.68;101562.56;5097229;27;45269;-75
2023/04/18 13:07:08;;;;;;;;;33.75;28.25;;;;;20.18;35.43;101559.13;5096817;27;45231;-76
2023/04/18 13:09:33;;;;;;;;;29.25;28.50;;;;;19.92;36.17;101550.13;5096130;27;46150;-76
2023/04/18 13:11:58;;;;;;;;;29.25;28.25;;;;;19.83;36.44;101557.09;5087319;27;45908;-77
2023/04/18 13:14:24;;;;;;;;;31.50;30.25;;;;;20.20;35.61;101555.31;5099157;27;52048;-75
2023/04/18 13:16:49;;;;;;;;;30.50;27.50;;;;;20.53;35.23;101551.09;5095982;27;45241;-75
2023/04/18 13:19:16;;;;;;;;;27.25;27.25;;;;;20.51;35.28;101544.91;5095627;27;46089;-75
2023/04/18 13:21:41;;;;;;;;;26.50;25.00;;;;;20.57;35.03;101550.78;5095771;27;46584;-76
2023/04/18 13:24:07;;;;;;;;;24.75;24.75;;;;;20.77;34.52;101547.41;5095490;27;46046;-76
2023/04/18 13:26:34;;;;;;;;;28.50;28.50;;;;;20.66;34.27;101546.50;5095789;27;45422;-74
2023/04/18 13:29:00;;;;;;;;;22.50;21.50;;;;;20.95;34.04;101555.16;5095072;27;46348;-75
2023/04/18 13:31:26;;;;;;;;;24.25;23.25;;;;;21.40;33.35;101543.47;5095675;27;45288;-76
2023/04/18 13:33:51;;;;;;;;;25.00;22.75;;;;;22.26;32.05;101527.41;5095548;27;45478;-73
2023/04/18 13:36:17;;;;;;;;;22.00;22.00;;;;;23.19;30.94;101519.53;5095708;27;47104;-74
2023/04/18 13:38:42;;;;;;;;;22.25;20.75;;;;;23.79;29.70;101528.88;5095324;27;45260;-76
2023/04/18 13:41:08;;;;;;;;;21.25;17.75;;;;;24.07;28.38;101521.78;5095133;27;51385;-75
2023/04/18 13:43:33;;;;;;;;;15.00;13.75;;;;;24.27;28.58;101528.22;5095330;27;45294;-75
2023/04/18 13:45:58;;;;;;;;;18.75;17.50;;;;;24.65;27.43;101519.22;5104756;27;46909;-75
2023/04/18 13:48:24;;;;;;;;;19.50;18.75;;;;;25.06;26.67;101513.50;5115486;27;54273;-75
2023/04/18 13:50:50;;;;;;;;;19.00;18.75;;;;;25.80;26.50;101508.16;5116160;27;45231;-76
2023/04/18 13:53:16;;;;;;;;;14.25;14.25;;;;;26.55;25.81;101497.94;5099366;27;45266;-76
2023/04/18 13:55:42;;;;;;;;;13.75;13.75;;;;;27.18;24.66;101514.41;5076387;27;45386;-76
2023/04/18 13:58:07;;;;;;;;;13.50;13.50;;;;;27.27;24.41;101496.94;5076184;27;46623;-77
2023/04/18 14:00:33;;;;;;;;;15.50;14.25;;;;;27.55;24.41;101497.69;5095411;27;45515;-77
2023/04/18 14:02:58;;;;;;;;;21.25;19.75;;;;;27.98;24.24;101494.84;5095201;27;45383;-76
2023/04/18 14:05:23;;;;;;;;;22.25;22.25;;;;;28.04;24.22;101496.94;5095222;27;45484;-76
2023/04/18 14:07:49;;;;;;;;;22.00;20.00;;;;;27.64;24.87;101493.97;5094952;27;45918;-76
2023/04/18 14:10:15;;;;;;;;;22.25;19.75;;;;;26.81;24.97;101481.53;5085869;27;46194;-76
2023/04/18 14:12:40;;;;;;;;;20.25;19.00;;;;;26.58;25.69;101497.63;5094750;27;45255;-75
2023/04/18 14:15:06;;;;;;;;;14.75;14.25;;;;;26.22;25.30;101502.16;5085817;27;46123;-77
2023/04/18 14:17:31;;;;;;;;;15.00;15.00;;;;;25.62;25.76;101493.47;5080890;27;48404;-75
2023/04/18 14:19:57;;;;;;;;;14.25;12.75;;;;;25.37;26.08;101502.31;5094854;27;48693;-77
2023/04/18 14:22:22;;;;;;;;;13.75;13.75;;;;;25.05;26.36;101488.94;5095069;27;45409;-76
2023/04/18 14:24:51;;;;;;;;;15.00;15.00;;;;;24.71;26.86;101493.97;5095178;27;45449;-76
2023/04/18 14:27:16;;;;;;;;;15.25;12.25;;;;;24.23;26.98;101497.50;5094754;27;45348;-76
2023/04/18 14:29:41;;;;;;;;;16.50;15.50;;;;;23.83;27.54;101489.22;5095062;27;45327;-75
2023/04/18 14:32:07;;;;;;;;;16.75;15.75;;;;;23.48;28.09;101497.81;5095004;27;46095;-76
2023/04/18 14:34:32;;;;;;;;;16.25;15.25;;;;;23.01;28.40;101485.56;5094777;27;46302;-76
2023/04/18 14:36:57;;;;;;;;;13.25;13.25;;;;;22.50;29.20;101485.38;5094624;27;45954;-75
2023/04/18 14:39:23;;;;;;;;;11.50;11.25;;;;;22.22;30.02;101506.78;5094781;27;45260;-74
2023/04/18 14:41:49;;;;;;;;;14.50;13.00;;;;;22.13;30.55;101496.63;5089696;27;45384;-76
2023/04/18 14:44:14;;;;;;;;;14.00;13.75;;;;;22.07;30.28;101496.25;5094721;27;45516;-75
2023/04/18 14:46:41;;;;;;;;;13.50;12.00;;;;;21.92;30.23;101503.81;5110616;27;45954;-76
2023/04/18 14:49:06;;;;;;;;;13.50;13.00;;;;;21.77;31.02;101497.75;5116121;27;45426;-75
2023/04/18 14:51:31;;;;;;;;;12.00;12.00;;;;;22.03;30.99;101495.63;5103126;27;45322;-75
2023/04/18 14:53:57;;;;;;;;;13.50;12.00;;;;;22.29;30.18;101500.84;5076849;27;45447;-76
2023/04/18 14:56:23;;;;;;;;;15.25;13.25;;;;;22.29;30.14;101489.91;5094352;27;46213;-75
2023/04/18 14:58:48;;;;;;;;;14.50;11.75;;;;;22.05;30.51;101474.53;5093981;27;45310;-77
2023/04/18 15:01:16;;;;;;;;;13.25;12.25;;;;;21.80;30.36;101492.03;5094533;27;45251;-76
2023/04/18 15:03:41;;;;;;;;;12.75;12.00;;;;;21.58;31.42;101491.16;5084073;27;46620;-76
2023/04/18 15:06:07;;;;;;;;;12.00;12.00;;;;;21.28;31.86;101489.00;5082607;27;46925;-76
2023/04/18 15:08:33;;;;;;;;;12.50;12.50;;;;;21.06;32.02;101492.50;5118234;27;45451;-76
2023/04/18 15:10:59;;;;;;;;;15.25;15.25;;;;;20.76;32.63;101493.88;5118560;27;45377;-76
2023/04/18 15:13:25;;;;;;;;;16.50;13.50;;;;;20.54;32.77;101496.50;5117953;27;45320;-76
2023/04/18 15:15:55;;;;;;;;;12.25;11.25;;;;;20.19;32.99;101480.06;5085665;27;47411;-77
2023/04/18 15:18:21;;;;;;;;;16.25;15.00;;;;;20.03;33.63;101499.38;5118382;27;45410;-76
2023/04/18 15:20:46;;;;;;;;;14.50;13.50;;;;;19.79;33.87;101493.00;5085936;27;45355;-79
2023/04/18 15:23:13;;;;;;;;;11.25;11.25;;;;;19.66;34.63;101489.41;5118212;27;45570;-77
2023/04/18 15:25:38;;;;;;;;;14.25;13.75;;;;;19.36;34.86;101480.72;5118112;27;45571;-75
2023/04/18 15:28:04;;;;;;;;;13.00;13.00;;;;;19.35;35.37;101495.28;5117958;27;45648;-76
2023/04/18 15:30:30;;;;;;;;;17.00;14.25;;;;;19.21;35.61;101479.97;5118163;27;45408;-76
2023/04/18 15:32:56;;;;;;;;;11.75;11.75;;;;;19.15;35.99;101488.50;5118128;27;45510;-76
2023/04/18 15:35:21;;;;;;;;;13.50;13.50;;;;;19.08;36.05;101477.22;5099838;27;45329;-77
2023/04/18 15:37:47;;;;;;;;;17.00;13.75;;;;;19.03;36.37;101482.09;5118718;27;45242;-77